createdAt,value
2022-10-18T00:00:40.547Z,0
2022-10-18T00:01:40.601Z,0
2022-10-18T00:02:40.571Z,0
2022-10-18T00:03:40.536Z,0
2022-10-18T00:04:40.564Z,0
2022-10-18T00:05:40.584Z,0
2022-10-18T00:06:43.462Z,0
2022-10-18T00:07:40.542Z,0
2022-10-18T00:08:40.539Z,0
2022-10-18T00:09:40.531Z,0
2022-10-18T00:10:40.551Z,0
2022-10-18T00:11:40.525Z,0
2022-10-18T00:12:40.657Z,0
2022-10-18T00:13:40.530Z,0
2022-10-18T00:14:40.522Z,0
2022-10-18T00:15:40.628Z,0
2022-10-18T00:16:40.613Z,0
2022-10-18T00:17:40.539Z,0
2022-10-18T00:18:40.520Z,0
2022-10-18T00:19:40.535Z,0
2022-10-18T00:20:40.549Z,0
2022-10-18T00:21:40.631Z,0
2022-10-18T00:22:40.522Z,0
2022-10-18T00:23:40.521Z,0
2022-10-18T00:24:40.529Z,0
2022-10-18T00:25:40.548Z,0
2022-10-18T00:26:40.538Z,0
2022-10-18T00:27:40.536Z,0
2022-10-18T00:28:40.574Z,0
2022-10-18T00:29:40.542Z,0
2022-10-18T00:30:40.599Z,0
2022-10-18T00:31:40.536Z,0
2022-10-18T00:32:40.557Z,0
2022-10-18T00:33:40.542Z,0
2022-10-18T00:34:40.558Z,0
2022-10-18T00:35:40.556Z,0
2022-10-18T00:36:40.550Z,0
2022-10-18T00:37:40.541Z,0
2022-10-18T00:38:40.536Z,0
2022-10-18T00:39:40.769Z,0
2022-10-18T00:40:40.613Z,0
2022-10-18T00:41:40.537Z,0
2022-10-18T00:42:40.542Z,0
2022-10-18T00:43:40.538Z,0
2022-10-18T00:44:40.544Z,0
2022-10-18T00:45:40.566Z,0
2022-10-18T00:46:40.536Z,0
2022-10-18T00:47:40.547Z,0
2022-10-18T00:48:40.542Z,0
2022-10-18T00:49:40.553Z,0
2022-10-18T00:50:40.553Z,0
2022-10-18T00:51:40.542Z,0
2022-10-18T00:52:40.546Z,0
2022-10-18T00:53:40.546Z,0
2022-10-18T00:54:40.534Z,0
2022-10-18T00:55:40.560Z,0
2022-10-18T00:56:40.545Z,0
2022-10-18T00:57:40.646Z,0
2022-10-18T00:58:40.526Z,0
2022-10-18T00:59:40.537Z,0
2022-10-18T01:00:40.560Z,0
2022-10-18T01:01:40.579Z,0
2022-10-18T01:02:40.541Z,0
2022-10-18T01:03:40.536Z,0
2022-10-18T01:04:40.565Z,0
2022-10-18T01:05:40.551Z,0
2022-10-18T01:06:40.543Z,0
2022-10-18T01:07:40.538Z,0
2022-10-18T01:08:40.532Z,0
2022-10-18T01:09:40.536Z,0
2022-10-18T01:10:40.559Z,0
2022-10-18T01:11:40.534Z,0
2022-10-18T01:12:40.537Z,0
2022-10-18T01:13:40.526Z,0
2022-10-18T01:14:40.526Z,0
2022-10-18T01:15:40.542Z,0
2022-10-18T01:16:40.523Z,0
2022-10-18T01:17:40.554Z,0
2022-10-18T01:18:40.535Z,0
2022-10-18T01:19:40.545Z,0
2022-10-18T01:20:40.541Z,0
2022-10-18T01:21:40.547Z,0
2022-10-18T01:22:40.527Z,0
2022-10-18T01:23:40.537Z,0
2022-10-18T01:24:40.530Z,0
2022-10-18T01:25:40.546Z,0
2022-10-18T01:26:40.535Z,0
2022-10-18T01:27:40.529Z,0
2022-10-18T01:28:40.570Z,0
2022-10-18T01:29:40.529Z,0
2022-10-18T01:30:40.547Z,0
2022-10-18T01:31:40.542Z,0
2022-10-18T01:32:40.547Z,0
2022-10-18T01:33:40.545Z,0
2022-10-18T01:34:40.702Z,0
2022-10-18T01:35:40.561Z,0
2022-10-18T01:36:40.550Z,0
2022-10-18T01:37:40.550Z,0
2022-10-18T01:38:40.546Z,0
2022-10-18T01:39:40.539Z,0
2022-10-18T01:40:40.544Z,0
2022-10-18T01:41:40.547Z,0
2022-10-18T01:42:40.542Z,0
2022-10-18T01:43:40.546Z,0
2022-10-18T01:44:40.546Z,0
2022-10-18T01:45:40.555Z,0
2022-10-18T01:46:40.548Z,0
2022-10-18T01:47:40.540Z,0
2022-10-18T01:48:40.542Z,0
2022-10-18T01:49:40.567Z,0
2022-10-18T01:50:40.563Z,0
2022-10-18T01:51:40.543Z,0
2022-10-18T01:52:40.550Z,0
2022-10-18T01:53:40.554Z,0
2022-10-18T01:54:40.543Z,0
2022-10-18T01:55:40.558Z,0
2022-10-18T01:56:40.546Z,0
2022-10-18T01:57:40.543Z,0
2022-10-18T01:58:40.543Z,0
2022-10-18T01:59:40.538Z,0
2022-10-18T02:00:40.545Z,0
2022-10-18T02:01:40.545Z,0
2022-10-18T02:02:40.552Z,0
2022-10-18T02:03:40.550Z,0
2022-10-18T02:04:40.570Z,0
2022-10-18T02:05:40.560Z,0
2022-10-18T02:06:40.543Z,0
2022-10-18T02:07:40.536Z,0
2022-10-18T02:08:40.545Z,0
2022-10-18T02:09:40.544Z,0
2022-10-18T02:10:40.557Z,0
2022-10-18T02:11:40.573Z,0
2022-10-18T02:12:40.546Z,0
2022-10-18T02:13:40.541Z,0
2022-10-18T02:14:40.549Z,0
2022-10-18T02:15:40.566Z,0
2022-10-18T02:16:40.542Z,0
2022-10-18T02:17:40.547Z,0
2022-10-18T02:18:40.549Z,0
2022-10-18T02:19:40.553Z,0
2022-10-18T02:20:40.544Z,0
2022-10-18T02:21:40.529Z,0
2022-10-18T02:22:40.532Z,0
2022-10-18T02:23:40.527Z,0
2022-10-18T02:24:40.532Z,0
2022-10-18T02:25:40.547Z,0
2022-10-18T02:26:40.549Z,0
2022-10-18T02:27:40.529Z,0
2022-10-18T02:28:40.537Z,0
2022-10-18T02:29:40.531Z,0
2022-10-18T02:30:40.579Z,0
2022-10-18T02:31:40.534Z,0
2022-10-18T02:32:40.524Z,0
2022-10-18T02:33:40.525Z,0
2022-10-18T02:34:40.556Z,0
2022-10-18T02:35:40.550Z,0
2022-10-18T02:36:40.526Z,0
2022-10-18T02:37:40.525Z,0
2022-10-18T02:38:40.536Z,0
2022-10-18T02:39:40.545Z,0
2022-10-18T02:40:40.556Z,0
2022-10-18T02:41:40.549Z,0
2022-10-18T02:42:40.569Z,0
2022-10-18T02:43:40.543Z,0
2022-10-18T02:44:40.553Z,0
2022-10-18T02:45:40.574Z,0
2022-10-18T02:46:40.555Z,0
2022-10-18T02:47:40.547Z,0
2022-10-18T02:48:40.554Z,0
2022-10-18T02:49:40.564Z,0
2022-10-18T02:50:40.563Z,0
2022-10-18T02:51:40.551Z,0
2022-10-18T02:52:40.539Z,0
2022-10-18T02:53:40.543Z,0
2022-10-18T02:54:40.543Z,0
2022-10-18T02:55:40.559Z,0
2022-10-18T02:56:40.539Z,0
2022-10-18T02:57:40.546Z,0
2022-10-18T02:58:40.541Z,0
2022-10-18T02:59:40.547Z,0
2022-10-18T03:00:40.542Z,0
2022-10-18T03:01:40.732Z,0
2022-10-18T03:02:40.551Z,0
2022-10-18T03:03:40.543Z,0
2022-10-18T03:04:40.560Z,0
2022-10-18T03:05:40.563Z,0
2022-10-18T03:06:40.537Z,0
2022-10-18T03:07:40.537Z,0
2022-10-18T03:08:40.547Z,0
2022-10-18T03:09:40.545Z,0
2022-10-18T03:10:40.551Z,0
2022-10-18T03:11:40.543Z,0
2022-10-18T03:12:40.539Z,0
2022-10-18T03:13:40.549Z,0
2022-10-18T03:14:40.549Z,0
2022-10-18T03:15:40.562Z,0
2022-10-18T03:16:40.535Z,0
2022-10-18T03:17:40.548Z,0
2022-10-18T03:18:40.542Z,0
2022-10-18T03:19:40.558Z,0
2022-10-18T03:20:40.551Z,0
2022-10-18T03:21:40.542Z,0
2022-10-18T03:22:40.545Z,0
2022-10-18T03:23:40.540Z,0
2022-10-18T03:24:40.569Z,0
2022-10-18T03:25:42.873Z,0
2022-10-18T03:26:40.533Z,0
2022-10-18T03:27:40.534Z,0
2022-10-18T03:28:40.604Z,0
2022-10-18T03:29:40.531Z,0
2022-10-18T03:30:40.636Z,0
2022-10-18T03:31:40.529Z,0
2022-10-18T03:32:40.533Z,0
2022-10-18T03:33:40.527Z,0
2022-10-18T03:34:40.548Z,0
2022-10-18T03:35:40.539Z,0
2022-10-18T03:36:40.537Z,0
2022-10-18T03:37:40.533Z,0
2022-10-18T03:38:40.533Z,0
2022-10-18T03:39:40.531Z,0
2022-10-18T03:40:40.545Z,0
2022-10-18T03:41:40.529Z,0
2022-10-18T03:42:40.553Z,0
2022-10-18T03:43:40.529Z,0
2022-10-18T03:44:40.535Z,0
2022-10-18T03:45:40.562Z,0
2022-10-18T03:46:40.536Z,0
2022-10-18T03:47:40.542Z,0
2022-10-18T03:48:40.556Z,0
2022-10-18T03:49:40.564Z,0
2022-10-18T03:50:40.561Z,0
2022-10-18T03:51:40.548Z,0
2022-10-18T03:52:40.541Z,0
2022-10-18T03:53:40.550Z,0
2022-10-18T03:54:40.539Z,0
2022-10-18T03:55:40.555Z,0
2022-10-18T03:56:40.544Z,0
2022-10-18T03:57:40.548Z,0
2022-10-18T03:58:40.546Z,0
2022-10-18T03:59:40.544Z,0
2022-10-18T04:00:40.539Z,0
2022-10-18T04:01:40.657Z,0
2022-10-18T04:02:40.546Z,0
2022-10-18T04:03:40.543Z,0
2022-10-18T04:04:40.559Z,0
2022-10-18T04:05:40.560Z,0
2022-10-18T04:06:40.551Z,0
2022-10-18T04:07:40.552Z,0
2022-10-18T04:08:40.553Z,0
2022-10-18T04:09:40.543Z,0
2022-10-18T04:10:40.543Z,0
2022-10-18T04:11:40.541Z,0
2022-10-18T04:12:40.550Z,0
2022-10-18T04:13:40.531Z,0
2022-10-18T04:14:40.570Z,0
2022-10-18T04:15:40.572Z,0
2022-10-18T04:16:40.545Z,0
2022-10-18T04:17:40.547Z,0
2022-10-18T04:18:40.541Z,0
2022-10-18T04:19:40.561Z,0
2022-10-18T04:20:40.546Z,0
2022-10-18T04:21:40.540Z,0
2022-10-18T04:22:40.551Z,0
2022-10-18T04:23:40.548Z,0
2022-10-18T04:24:40.540Z,0
2022-10-18T04:25:40.633Z,0
2022-10-18T04:26:40.542Z,0
2022-10-18T04:27:40.550Z,0
2022-10-18T04:28:40.608Z,0
2022-10-18T04:29:40.547Z,0
2022-10-18T04:30:40.546Z,0
2022-10-18T04:31:40.561Z,0
2022-10-18T04:32:40.526Z,0
2022-10-18T04:33:40.529Z,0
2022-10-18T04:34:40.622Z,0
2022-10-18T04:35:40.544Z,0
2022-10-18T04:36:40.531Z,0
2022-10-18T04:37:40.530Z,0
2022-10-18T04:38:40.530Z,0
2022-10-18T04:39:40.530Z,0
2022-10-18T04:40:40.542Z,0
2022-10-18T04:41:40.531Z,0
2022-10-18T04:42:40.536Z,0
2022-10-18T04:43:40.588Z,0
2022-10-18T04:44:40.530Z,0
2022-10-18T04:45:40.543Z,0
2022-10-18T04:46:40.530Z,0
2022-10-18T04:47:40.525Z,0
2022-10-18T04:48:40.545Z,0
2022-10-18T04:49:40.550Z,0
2022-10-18T04:50:40.539Z,0
2022-10-18T04:51:40.554Z,0
2022-10-18T04:52:40.613Z,0
2022-10-18T04:53:40.546Z,0
2022-10-18T04:54:40.527Z,0
2022-10-18T04:55:40.567Z,0
2022-10-18T04:56:40.536Z,0
2022-10-18T04:57:40.542Z,0
2022-10-18T04:58:40.541Z,0
2022-10-18T04:59:40.543Z,0
2022-10-18T05:00:40.550Z,0
2022-10-18T05:01:40.650Z,0
2022-10-18T05:02:40.542Z,0
2022-10-18T05:03:40.540Z,0
2022-10-18T05:04:40.557Z,0
2022-10-18T05:06:00.211Z,0
2022-10-18T05:06:40.552Z,0
2022-10-18T05:07:40.546Z,0
2022-10-18T05:08:40.543Z,0
2022-10-18T05:09:40.550Z,0
2022-10-18T05:10:40.543Z,0
2022-10-18T05:11:40.545Z,0
2022-10-18T05:12:40.548Z,0
2022-10-18T05:13:40.551Z,0
2022-10-18T05:14:40.544Z,0
2022-10-18T05:15:40.557Z,0
2022-10-18T05:16:40.563Z,0
2022-10-18T05:17:40.539Z,0
2022-10-18T05:18:40.543Z,0.01
2022-10-18T05:19:40.571Z,0.01
2022-10-18T05:20:40.549Z,0.01
2022-10-18T05:21:40.542Z,0.01
2022-10-18T05:22:40.547Z,0.01
2022-10-18T05:23:40.542Z,0.01
2022-10-18T05:24:40.548Z,0.01
2022-10-18T05:25:40.563Z,0.01
2022-10-18T05:26:40.544Z,0.02
2022-10-18T05:27:40.537Z,0.02
2022-10-18T05:28:41.367Z,0.02
2022-10-18T05:29:40.601Z,0.02
2022-10-18T05:30:40.557Z,0.02
2022-10-18T05:31:40.541Z,0.02
2022-10-18T05:32:40.542Z,0.03
2022-10-18T05:33:40.542Z,0.03
2022-10-18T05:34:40.567Z,0.03
2022-10-18T05:35:40.537Z,0.03
2022-10-18T05:36:40.534Z,0.04
2022-10-18T05:37:40.524Z,0.04
2022-10-18T05:38:40.535Z,0.05
2022-10-18T05:39:40.531Z,0.05
2022-10-18T05:40:40.531Z,0.06
2022-10-18T05:41:40.528Z,0.06
2022-10-18T05:42:40.533Z,0.07
2022-10-18T05:43:40.524Z,0.07
2022-10-18T05:44:40.535Z,0.07
2022-10-18T05:45:40.541Z,0.07
2022-10-18T05:46:40.527Z,0.07
2022-10-18T05:47:40.527Z,0.07
2022-10-18T05:48:40.620Z,0.08
2022-10-18T05:49:40.545Z,0.08
2022-10-18T05:50:40.611Z,0.08
2022-10-18T05:51:40.524Z,0.09
2022-10-18T05:52:40.523Z,0.09
2022-10-18T05:53:40.523Z,0.1
2022-10-18T05:54:40.529Z,0.1
2022-10-18T05:55:40.552Z,0.11
2022-10-18T05:56:40.543Z,0.12
2022-10-18T05:57:40.545Z,0.13
2022-10-18T05:58:40.545Z,0.14
2022-10-18T05:59:40.541Z,0.15
2022-10-18T06:00:40.540Z,0.15
2022-10-18T06:01:40.550Z,0.16
2022-10-18T06:02:40.592Z,0.18
2022-10-18T06:03:40.551Z,0.2
2022-10-18T06:04:40.555Z,0.22
2022-10-18T06:05:40.577Z,0.25
2022-10-18T06:06:40.535Z,0.25
2022-10-18T06:07:40.552Z,0.3
2022-10-18T06:08:40.543Z,0.31
2022-10-18T06:09:40.547Z,0.3
2022-10-18T06:10:40.548Z,0.3
2022-10-18T06:11:40.550Z,0.36
2022-10-18T06:12:40.542Z,0.38
2022-10-18T06:13:40.560Z,0.43
2022-10-18T06:14:40.547Z,0.48
2022-10-18T06:15:40.561Z,0.52
2022-10-18T06:16:40.548Z,0.57
2022-10-18T06:17:40.541Z,0.63
2022-10-18T06:18:40.551Z,0.63
2022-10-18T06:19:40.564Z,0.63
2022-10-18T06:20:40.546Z,0.71
2022-10-18T06:21:40.547Z,0.75
2022-10-18T06:22:40.540Z,0.82
2022-10-18T06:23:40.546Z,0.86
2022-10-18T06:24:40.542Z,0.9
2022-10-18T06:25:40.564Z,0.91
2022-10-18T06:26:40.539Z,0.97
2022-10-18T06:27:40.536Z,1
2022-10-18T06:28:40.583Z,1
2022-10-18T06:29:40.526Z,0.97
2022-10-18T06:30:40.553Z,0.99
2022-10-18T06:31:40.542Z,1
2022-10-18T06:32:40.545Z,1.01
2022-10-18T06:33:40.553Z,1.01
2022-10-18T06:34:40.560Z,1.08
2022-10-18T06:35:40.557Z,1.08
2022-10-18T06:36:40.544Z,1.06
2022-10-18T06:37:40.552Z,1.05
2022-10-18T06:38:40.546Z,0.95
2022-10-18T06:39:40.537Z,0.77
2022-10-18T06:40:40.557Z,0.79
2022-10-18T06:41:40.542Z,1.05
2022-10-18T06:42:40.537Z,1.34
2022-10-18T06:43:40.533Z,1.37
2022-10-18T06:44:40.535Z,1.34
2022-10-18T06:45:40.543Z,1.39
2022-10-18T06:46:40.532Z,1.61
2022-10-18T06:47:40.538Z,1.64
2022-10-18T06:48:40.525Z,1.7
2022-10-18T06:49:40.546Z,1.75
2022-10-18T06:50:40.556Z,1.79
2022-10-18T06:51:40.537Z,1.86
2022-10-18T06:52:40.538Z,1.95
2022-10-18T06:53:44.363Z,2.01
2022-10-18T06:54:40.531Z,2.07
2022-10-18T06:55:40.543Z,2.1
2022-10-18T06:56:40.533Z,2.14
2022-10-18T06:57:40.551Z,2.17
2022-10-18T06:58:40.531Z,2.21
2022-10-18T06:59:40.533Z,2.22
2022-10-18T07:00:40.558Z,2.24
2022-10-18T07:01:40.657Z,2.3
2022-10-18T07:02:40.534Z,2.32
2022-10-18T07:03:40.531Z,2.36
2022-10-18T07:04:40.563Z,2.39
2022-10-18T07:05:40.579Z,2.39
2022-10-18T07:06:40.547Z,2.4
2022-10-18T07:07:40.546Z,2.47
2022-10-18T07:08:40.548Z,2.53
2022-10-18T07:09:40.568Z,2.58
2022-10-18T07:10:40.561Z,2.59
2022-10-18T07:11:40.549Z,2.64
2022-10-18T07:12:40.543Z,2.66
2022-10-18T07:13:40.537Z,2.71
2022-10-18T07:14:40.543Z,2.73
2022-10-18T07:15:40.566Z,2.73
2022-10-18T07:16:40.544Z,2.75
2022-10-18T07:17:40.537Z,2.69
2022-10-18T07:18:40.540Z,2.71
2022-10-18T07:19:40.556Z,2.71
2022-10-18T07:20:40.563Z,2.71
2022-10-18T07:21:40.544Z,2.73
2022-10-18T07:22:40.542Z,2.75
2022-10-18T07:23:40.556Z,2.73
2022-10-18T07:24:40.546Z,2.72
2022-10-18T07:25:40.559Z,2.79
2022-10-18T07:26:40.555Z,2.87
2022-10-18T07:27:40.552Z,2.92
2022-10-18T07:28:40.651Z,2.92
2022-10-18T07:29:40.549Z,2.88
2022-10-18T07:30:40.557Z,2.85
2022-10-18T07:31:40.546Z,2.81
2022-10-18T07:32:40.543Z,2.95
2022-10-18T07:33:40.539Z,2.61
2022-10-18T07:34:40.554Z,2.81
2022-10-18T07:35:40.568Z,2.84
2022-10-18T07:36:40.544Z,2.75
2022-10-18T07:37:40.546Z,2.31
2022-10-18T07:38:40.573Z,2.43
2022-10-18T07:39:40.544Z,1.06
2022-10-18T07:40:40.548Z,1.02
2022-10-18T07:41:40.546Z,1.02
2022-10-18T07:42:40.546Z,1.19
2022-10-18T07:43:40.543Z,1.02
2022-10-18T07:44:40.541Z,0.99
2022-10-18T07:45:40.575Z,0.97
2022-10-18T07:46:40.540Z,0.98
2022-10-18T07:47:40.814Z,1.15
2022-10-18T07:48:40.541Z,1.05
2022-10-18T07:49:40.553Z,1.11
2022-10-18T07:50:40.555Z,1.18
2022-10-18T07:51:40.543Z,1.23
2022-10-18T07:52:40.585Z,1.35
2022-10-18T07:53:40.545Z,1.26
2022-10-18T07:54:40.658Z,1.26
2022-10-18T07:55:40.544Z,1.26
2022-10-18T07:56:40.530Z,1.12
2022-10-18T07:57:40.525Z,0.94
2022-10-18T07:58:40.523Z,0.82
2022-10-18T07:59:40.534Z,0.75
2022-10-18T08:00:40.549Z,0.71
2022-10-18T08:01:40.632Z,0.71
2022-10-18T08:03:02.442Z,0.77
2022-10-18T08:04:06.094Z,0.84
2022-10-18T08:05:00.576Z,0.84
2022-10-18T08:06:00.571Z,0.99
2022-10-18T08:07:00.543Z,1.03
2022-10-18T08:08:04.246Z,1.05
2022-10-18T08:09:00.550Z,1.08
2022-10-18T08:10:00.538Z,1.11
2022-10-18T08:11:00.552Z,1.19
2022-10-18T08:12:00.530Z,1.3
2022-10-18T08:13:00.539Z,1.38
2022-10-18T08:14:00.544Z,1.6
2022-10-18T08:15:00.540Z,1.83
2022-10-18T08:16:00.583Z,3.42
2022-10-18T08:17:00.537Z,1.71
2022-10-18T08:18:00.543Z,1.37
2022-10-18T08:19:00.620Z,1.34
2022-10-18T08:20:11.648Z,1.42
2022-10-18T08:21:00.558Z,1.63
2022-10-18T08:22:00.538Z,1.75
2022-10-18T08:23:00.836Z,2.02
2022-10-18T08:24:00.550Z,3.48
2022-10-18T08:25:00.548Z,4
2022-10-18T08:26:00.548Z,4.13
2022-10-18T08:27:00.546Z,3.51
2022-10-18T08:28:00.653Z,2.79
2022-10-18T08:29:17.646Z,2.79
2022-10-18T08:30:01.363Z,1.9
2022-10-18T08:31:00.701Z,1.76
2022-10-18T08:32:00.619Z,1.64
2022-10-18T08:33:00.763Z,1.61
2022-10-18T08:34:00.523Z,1.56
2022-10-18T08:35:02.242Z,1.55
2022-10-18T08:36:01.033Z,1.56
2022-10-18T08:37:00.543Z,1.59
2022-10-18T08:38:00.552Z,1.52
2022-10-18T08:39:00.662Z,1.6
2022-10-18T08:40:00.612Z,1.49
2022-10-18T08:41:00.540Z,1.39
2022-10-18T08:42:00.566Z,1.39
2022-10-18T08:43:00.537Z,1.39
2022-10-18T08:44:02.226Z,1.42
2022-10-18T08:45:08.247Z,1.4
2022-10-18T08:46:00.621Z,1.33
2022-10-18T08:47:00.538Z,1.26
2022-10-18T08:48:00.539Z,1.24
2022-10-18T08:49:00.534Z,1.09
2022-10-18T08:50:00.569Z,1.07
2022-10-18T08:51:00.549Z,1.09
2022-10-18T08:52:00.525Z,1.05
2022-10-18T08:53:00.542Z,1.07
2022-10-18T08:54:00.529Z,0.97
2022-10-18T08:55:00.516Z,0.92
2022-10-18T08:56:00.538Z,0.8
2022-10-18T08:57:00.513Z,0.75
2022-10-18T08:58:00.520Z,0.69
2022-10-18T08:59:00.519Z,0.69
2022-10-18T09:00:00.521Z,0.6
2022-10-18T09:01:00.561Z,0.57
2022-10-18T09:02:00.517Z,0.54
2022-10-18T09:03:00.612Z,0.52
2022-10-18T09:04:00.524Z,0.49
2022-10-18T09:05:00.566Z,0.47
2022-10-18T09:06:00.578Z,0.46
2022-10-18T09:07:00.513Z,0.46
2022-10-18T09:08:00.530Z,0.47
2022-10-18T09:09:00.533Z,0.48
2022-10-18T09:10:00.515Z,0.47
2022-10-18T09:11:00.552Z,0.46
2022-10-18T09:12:02.106Z,0.45
2022-10-18T09:13:00.523Z,0.46
2022-10-18T09:14:00.533Z,0.5
2022-10-18T09:15:00.543Z,0.55
2022-10-18T09:16:00.546Z,0.57
2022-10-18T09:17:00.533Z,0.56
2022-10-18T09:18:00.537Z,0.55
2022-10-18T09:19:00.519Z,0.52
2022-10-18T09:21:00.553Z,0.44
2022-10-18T09:22:00.534Z,0.44
2022-10-18T09:23:00.538Z,0.45
2022-10-18T09:24:00.539Z,0.45
2022-10-18T09:25:00.539Z,0.47
2022-10-18T09:26:00.552Z,0.48
2022-10-18T09:27:00.530Z,0.49
2022-10-18T09:28:00.523Z,0.48
2022-10-18T09:29:00.645Z,0.48
2022-10-18T09:30:00.539Z,0.47
2022-10-18T09:31:00.541Z,0.46
2022-10-18T09:32:00.523Z,0.44
2022-10-18T09:33:00.533Z,0.44
2022-10-18T09:34:00.538Z,0.44
2022-10-18T09:35:00.547Z,0.45
2022-10-18T09:36:00.579Z,0.48
2022-10-18T09:37:00.530Z,0.49
2022-10-18T09:38:00.536Z,0.49
2022-10-18T09:39:00.739Z,0.49
2022-10-18T09:40:00.556Z,0.51
2022-10-18T09:41:00.542Z,0.55
2022-10-18T09:42:00.540Z,0.59
2022-10-18T09:43:00.535Z,0.61
2022-10-18T09:44:00.542Z,0.63
2022-10-18T09:45:00.535Z,0.62
2022-10-18T09:46:00.547Z,0.64
2022-10-18T09:47:00.532Z,0.65
2022-10-18T09:48:00.540Z,0.67
2022-10-18T09:49:00.520Z,0.71
2022-10-18T09:50:00.531Z,0.71
2022-10-18T09:51:00.564Z,0.71
2022-10-18T09:52:00.536Z,0.73
2022-10-18T09:53:00.536Z,0.72
2022-10-18T09:54:00.535Z,0.75
2022-10-18T09:55:00.544Z,0.72
2022-10-18T09:56:00.546Z,0.7
2022-10-18T09:57:00.513Z,0.71
2022-10-18T09:58:00.531Z,0.75
2022-10-18T09:59:00.535Z,0.8
2022-10-18T10:00:00.520Z,0.88
2022-10-18T10:01:00.547Z,1.08
2022-10-18T10:02:00.632Z,1.08
2022-10-18T10:03:00.537Z,1.33
2022-10-18T10:04:00.528Z,1.63
2022-10-18T10:05:00.569Z,4.04
2022-10-18T10:06:00.529Z,5.32
2022-10-18T10:07:00.516Z,5.63
2022-10-18T10:08:00.516Z,4.64
2022-10-18T10:09:00.516Z,3.92
2022-10-18T10:10:00.571Z,2.95
2022-10-18T10:11:00.546Z,1.76
2022-10-18T10:12:00.530Z,1.64
2022-10-18T10:13:00.525Z,2.13
2022-10-18T10:14:00.511Z,1.25
2022-10-18T10:15:00.518Z,1.05
2022-10-18T10:16:00.527Z,0.95
2022-10-18T10:17:00.521Z,0.93
2022-10-18T10:18:00.519Z,0.89
2022-10-18T10:19:00.529Z,0.88
2022-10-18T10:20:00.537Z,0.85
2022-10-18T10:21:00.548Z,0.86
2022-10-18T10:22:00.536Z,1
2022-10-18T10:23:00.533Z,1.1
2022-10-18T10:24:00.596Z,1.12
2022-10-18T10:25:00.580Z,1.29
2022-10-18T10:26:00.546Z,1.24
2022-10-18T10:27:00.529Z,1.26
2022-10-18T10:28:00.531Z,1.22
2022-10-18T10:29:00.629Z,1.19
2022-10-18T10:30:05.735Z,1.3
2022-10-18T10:31:00.549Z,1.52
2022-10-18T10:32:00.537Z,1.28
2022-10-18T10:33:00.530Z,1.28
2022-10-18T10:34:00.532Z,1.66
2022-10-18T10:35:00.548Z,2.23
2022-10-18T10:36:00.546Z,4.87
2022-10-18T10:37:00.564Z,4.38
2022-10-18T10:38:00.536Z,2.89
2022-10-18T10:39:00.539Z,4.82
2022-10-18T10:40:17.278Z,3.96
2022-10-18T10:41:00.545Z,4.11
2022-10-18T10:42:00.553Z,3.14
2022-10-18T10:43:12.874Z,2.87
2022-10-18T10:44:00.532Z,2.27
2022-10-18T10:45:00.545Z,2.76
2022-10-18T10:46:00.553Z,3.02
2022-10-18T10:47:00.536Z,5.54
2022-10-18T10:48:00.539Z,2.32
2022-10-18T10:49:34.617Z,1.81
2022-10-18T10:50:00.553Z,3.01
2022-10-18T10:51:00.554Z,2.19
2022-10-18T10:52:08.984Z,3.51
2022-10-18T10:53:00.535Z,3.98
2022-10-18T10:54:00.598Z,3.66
2022-10-18T10:55:06.114Z,3.65
2022-10-18T10:56:00.629Z,4.08
2022-10-18T10:57:00.532Z,4.66
2022-10-18T10:58:00.530Z,2.19
2022-10-18T10:59:00.578Z,2.18
2022-10-18T11:00:00.526Z,2.1
2022-10-18T11:01:00.553Z,2.05
2022-10-18T11:02:00.542Z,1.98
2022-10-18T11:03:06.051Z,2.04
2022-10-18T11:04:00.623Z,2.4
2022-10-18T11:05:00.541Z,2.08
2022-10-18T11:06:00.549Z,2.08
2022-10-18T11:07:00.539Z,2.15
2022-10-18T11:08:00.539Z,2.41
2022-10-18T11:09:00.542Z,3.24
2022-10-18T11:10:00.520Z,3.34
2022-10-18T11:11:00.565Z,3.36
2022-10-18T11:12:00.511Z,4.52
2022-10-18T11:13:00.515Z,3.13
2022-10-18T11:14:24.849Z,2.55
2022-10-18T11:15:00.514Z,3.34
2022-10-18T11:16:00.539Z,2.91
2022-10-18T11:17:03.039Z,2.94
2022-10-18T11:18:00.542Z,2.94
2022-10-18T11:19:00.552Z,3.27
2022-10-18T11:20:00.536Z,2.59
2022-10-18T11:21:00.611Z,2.17
2022-10-18T11:22:00.527Z,4.82
2022-10-18T11:23:00.519Z,5.45
2022-10-18T11:24:00.557Z,5.75
2022-10-18T11:25:00.520Z,4.66
2022-10-18T11:26:00.549Z,5.66
2022-10-18T11:27:00.521Z,3.21
2022-10-18T11:28:00.528Z,3.18
2022-10-18T11:29:00.591Z,2.22
2022-10-18T11:30:00.512Z,2.6
2022-10-18T11:31:00.552Z,2.4
2022-10-18T11:32:00.517Z,2.49
2022-10-18T11:33:00.524Z,5.16
2022-10-18T11:34:09.705Z,3.43
2022-10-18T11:35:00.560Z,5.38
2022-10-18T11:36:03.811Z,3.14
2022-10-18T11:37:25.916Z,2.71
2022-10-18T11:38:00.524Z,5.23
2022-10-18T11:39:00.522Z,3.1
2022-10-18T11:40:00.515Z,5.07
2022-10-18T11:41:00.548Z,3.78
2022-10-18T11:42:00.536Z,4.71
2022-10-18T11:43:00.535Z,3.5
2022-10-18T11:44:02.983Z,2.32
2022-10-18T11:45:00.534Z,3.07
2022-10-18T11:46:00.546Z,1.91
2022-10-18T11:47:00.525Z,1.52
2022-10-18T11:48:00.530Z,2.18
2022-10-18T11:49:00.531Z,1.74
2022-10-18T11:50:00.536Z,1.4
2022-10-18T11:51:00.553Z,1.14
2022-10-18T11:52:08.237Z,0.9
2022-10-18T11:53:00.522Z,0.73
2022-10-18T11:54:00.533Z,0.74
2022-10-18T11:55:00.515Z,0.87
2022-10-18T11:56:00.560Z,0.71
2022-10-18T11:57:00.531Z,0.61
2022-10-18T11:58:00.523Z,0.66
2022-10-18T11:59:00.535Z,0.74
2022-10-18T12:00:00.514Z,0.7
2022-10-18T12:01:00.546Z,0.7
2022-10-18T12:02:00.535Z,0.7
2022-10-18T12:03:00.538Z,0.7
2022-10-18T12:04:00.538Z,0.33
2022-10-18T12:05:23.994Z,0.25
2022-10-18T12:06:00.542Z,0.2
2022-10-18T12:07:00.527Z,0.16
2022-10-18T12:08:00.524Z,0.15
2022-10-18T12:09:00.527Z,0.18
2022-10-18T12:10:00.540Z,0.2
2022-10-18T12:11:05.569Z,0.2
2022-10-18T12:12:00.530Z,0.2
2022-10-18T12:13:00.530Z,0.2
2022-10-18T12:14:00.526Z,0.2
2022-10-18T12:15:00.531Z,0.21
2022-10-18T12:16:00.539Z,0.2
2022-10-18T12:17:27.834Z,0.18
2022-10-18T12:18:00.539Z,0.17
2022-10-18T12:19:00.516Z,0.19
2022-10-18T12:20:00.539Z,0.17
2022-10-18T12:21:00.550Z,0.16
2022-10-18T12:22:00.523Z,0.16
2022-10-18T12:23:00.514Z,0.13
2022-10-18T12:24:00.511Z,0.11
2022-10-18T12:25:00.522Z,0.09
2022-10-18T12:26:00.552Z,0.08
2022-10-18T12:27:00.571Z,0.08
2022-10-18T12:29:00.596Z,0.09
2022-10-18T12:30:00.517Z,0.1
2022-10-18T12:31:00.555Z,0.12
2022-10-18T12:32:00.524Z,0.13
2022-10-18T12:33:03.661Z,0.13
2022-10-18T12:34:00.522Z,0.13
2022-10-18T12:35:00.539Z,0.15
2022-10-18T12:36:00.559Z,0.17
2022-10-18T12:37:00.581Z,0.2
2022-10-18T12:38:00.693Z,0.22
2022-10-18T12:39:00.533Z,0.21
2022-10-18T12:40:14.233Z,0.16
2022-10-18T12:41:00.536Z,0.13
2022-10-18T12:42:00.526Z,0.11
2022-10-18T12:43:00.526Z,0.11
2022-10-18T12:44:00.534Z,0.1
2022-10-18T12:45:00.519Z,0.08
2022-10-18T12:46:00.548Z,0.07
2022-10-18T12:47:00.533Z,0.07
2022-10-18T12:48:00.536Z,0.07
2022-10-18T12:49:00.512Z,0.1
2022-10-18T12:50:00.533Z,0.14
2022-10-18T12:51:00.549Z,0.18
2022-10-18T12:52:00.523Z,0.22
2022-10-18T12:53:00.526Z,0.21
2022-10-18T12:54:00.528Z,0.19
2022-10-18T12:55:00.531Z,0.17
2022-10-18T12:56:00.573Z,0.14
2022-10-18T12:57:00.525Z,0.13
2022-10-18T12:58:00.534Z,0.13
2022-10-18T12:59:00.529Z,0.12
2022-10-18T13:00:00.518Z,0.12
2022-10-18T13:01:00.548Z,0.13
2022-10-18T13:02:00.585Z,0.14
2022-10-18T13:03:00.540Z,0.14
2022-10-18T13:04:00.532Z,0.22
2022-10-18T13:05:00.876Z,0.24
2022-10-18T13:06:02.909Z,0.24
2022-10-18T13:07:00.537Z,0.24
2022-10-18T13:08:00.537Z,0.25
2022-10-18T13:09:00.527Z,0.27
2022-10-18T13:10:00.517Z,0.32
2022-10-18T13:11:00.573Z,0.38
2022-10-18T13:12:02.028Z,0.48
2022-10-18T13:13:05.034Z,0.68
2022-10-18T13:14:00.593Z,0.77
2022-10-18T13:15:13.447Z,0.74
2022-10-18T13:16:00.543Z,0.66
2022-10-18T13:17:00.530Z,0.57
2022-10-18T13:18:00.534Z,0.52
2022-10-18T13:19:00.524Z,0.5
2022-10-18T13:20:23.868Z,0.46
2022-10-18T13:21:00.537Z,0.39
2022-10-18T13:22:00.536Z,0.34
2022-10-18T13:23:00.566Z,0.35
2022-10-18T13:24:00.535Z,0.34
2022-10-18T13:25:00.530Z,0.35
2022-10-18T13:26:00.626Z,0.39
2022-10-18T13:27:17.478Z,0.42
2022-10-18T13:35:05.543Z,0.34
2022-10-18T13:36:00.515Z,0.27
2022-10-18T13:37:00.516Z,0.25
2022-10-18T13:38:00.511Z,0.3
2022-10-18T13:39:00.514Z,0.31
2022-10-18T13:40:00.513Z,0.27
2022-10-18T13:41:00.515Z,0.21
2022-10-18T13:42:00.521Z,0.18
2022-10-18T13:43:00.515Z,0.16
2022-10-18T13:44:00.514Z,0.14
2022-10-18T13:45:00.511Z,0.13
2022-10-18T13:46:00.508Z,0.09
2022-10-18T13:47:00.515Z,0.08
2022-10-18T13:48:00.512Z,0.07
2022-10-18T13:49:00.531Z,0.08
2022-10-18T13:50:00.516Z,0.08
2022-10-18T13:51:00.541Z,0.12
2022-10-18T13:52:00.521Z,0.13
2022-10-18T13:53:00.532Z,0.15
2022-10-18T13:54:00.520Z,0.14
2022-10-18T13:55:00.515Z,0.14
2022-10-18T13:56:00.526Z,0.13
2022-10-18T13:57:00.532Z,0.12
2022-10-18T13:58:00.533Z,0.12
2022-10-18T13:59:13.656Z,0.13
2022-10-18T14:00:00.517Z,0.14
2022-10-18T14:01:00.535Z,0.15
2022-10-18T14:02:00.612Z,0.15